createdAt,value
2018-11-10T00:05:34.415Z,5.20
2018-11-10T00:13:56.582Z,5.20
2018-11-10T00:22:18.761Z,5.20
2018-11-10T00:30:40.931Z,5.00
2018-11-10T00:39:03.222Z,4.80
2018-11-10T00:47:25.382Z,4.70
2018-11-10T00:55:47.554Z,4.90
2018-11-10T01:04:11.776Z,4.60
2018-11-10T01:12:33.950Z,4.60
2018-11-10T01:20:56.430Z,4.80
2018-11-10T01:29:18.605Z,4.60
2018-11-10T01:37:40.778Z,4.60
2018-11-10T01:46:03.160Z,4.20
2018-11-10T01:54:25.331Z,4.40
2018-11-10T02:02:48.016Z,4.40
2018-11-10T02:11:10.190Z,4.30
2018-11-10T02:19:32.365Z,4.20
2018-11-10T02:27:54.538Z,4.10
2018-11-10T02:36:16.716Z,4.00
2018-11-10T02:44:38.988Z,4.20
2018-11-10T02:53:01.163Z,4.20
2018-11-10T03:01:23.234Z,4.00
2018-11-10T03:09:45.408Z,3.90
2018-11-10T03:18:07.581Z,4.10
2018-11-10T03:26:29.656Z,4.10
2018-11-10T03:34:51.827Z,4.00
2018-11-10T03:43:13.901Z,4.10
2018-11-10T03:51:36.072Z,4.00
2018-11-10T03:59:58.246Z,4.40
2018-11-10T04:08:20.420Z,4.30
2018-11-10T04:16:42.594Z,4.20
2018-11-10T04:25:05.586Z,4.40
2018-11-10T04:33:27.761Z,4.80
2018-11-10T04:41:49.935Z,5.30
2018-11-10T04:50:12.621Z,5.00
2018-11-10T04:58:34.798Z,5.00
2018-11-10T05:06:56.969Z,4.90
2018-11-10T05:15:19.142Z,4.60
2018-11-10T05:23:41.321Z,4.80
2018-11-10T05:32:03.490Z,4.90
2018-11-10T05:40:25.665Z,4.90
2018-11-10T05:48:47.738Z,5.00
2018-11-10T05:57:09.994Z,5.10
2018-11-10T06:05:32.083Z,5.40
2018-11-10T06:13:54.163Z,5.50
2018-11-10T06:22:16.329Z,5.30
2018-11-10T06:30:38.502Z,5.50
2018-11-10T06:39:00.677Z,5.60
2018-11-10T06:47:22.851Z,5.80
2018-11-10T06:55:45.024Z,5.80
2018-11-10T07:04:07.200Z,5.80
2018-11-10T07:12:29.376Z,6.20
2018-11-10T07:20:51.445Z,6.20
2018-11-10T07:29:13.617Z,6.20
2018-11-10T07:37:35.842Z,6.30
2018-11-10T07:45:58.067Z,6.40
2018-11-10T07:54:20.249Z,6.50
2018-11-10T08:02:42.313Z,6.70
2018-11-10T08:11:04.487Z,7.10
2018-11-10T08:19:26.660Z,7.30
2018-11-10T08:27:48.944Z,7.60
2018-11-10T08:36:11.115Z,8.00
2018-11-10T08:44:33.285Z,8.20
2018-11-10T08:52:55.458Z,8.80
2018-11-10T09:01:17.529Z,9.60
2018-11-10T09:09:39.716Z,11.20
2018-11-10T09:18:01.878Z,11.20
2018-11-10T09:26:24.461Z,12.60
2018-11-10T09:34:46.635Z,12.30
2018-11-10T09:43:08.912Z,12.90
2018-11-10T09:51:31.085Z,13.60
2018-11-10T09:59:53.258Z,13.40
2018-11-10T10:08:15.534Z,13.50
2018-11-10T10:16:37.792Z,13.70
2018-11-10T10:24:59.987Z,13.70
2018-11-10T10:33:22.475Z,14.30
2018-11-10T10:41:44.744Z,14.50
2018-11-10T10:50:06.916Z,15.90
2018-11-10T10:58:28.987Z,15.20
2018-11-10T11:06:51.161Z,15.40
2018-11-10T11:15:13.348Z,15.10
2018-11-10T11:23:35.713Z,14.90
2018-11-10T11:31:57.992Z,14.90
2018-11-10T11:40:26.320Z,15.10
2018-11-10T11:48:48.485Z,15.00
2018-11-10T11:57:10.658Z,15.00
2018-11-10T12:05:32.831Z,15.10
2018-11-10T12:13:55.004Z,15.10
2018-11-10T12:22:16.399Z,15.20
2018-11-10T12:30:37.763Z,15.20
2018-11-10T12:38:59.266Z,15.20
2018-11-10T12:47:20.539Z,15.40
2018-11-10T12:55:41.915Z,15.30
2018-11-10T13:04:03.265Z,15.60
2018-11-10T13:12:24.645Z,15.40
2018-11-10T13:20:46.025Z,15.40
2018-11-10T13:29:07.379Z,15.30
2018-11-10T13:37:28.725Z,15.40
2018-11-10T13:45:50.081Z,15.40
2018-11-10T13:54:11.497Z,15.30
2018-11-10T14:02:32.882Z,15.40
2018-11-10T14:10:54.239Z,15.20
2018-11-10T14:19:15.590Z,15.20
2018-11-10T14:27:37.862Z,15.00
2018-11-10T14:35:59.194Z,14.90
2018-11-10T14:44:20.566Z,14.70
2018-11-10T14:52:42.289Z,14.60
2018-11-10T15:01:03.567Z,14.50
2018-11-10T15:09:24.922Z,14.20
2018-11-10T15:17:46.624Z,13.90
2018-11-10T15:26:07.842Z,13.70
2018-11-10T15:34:29.194Z,13.40
2018-11-10T15:42:51.571Z,13.20
2018-11-10T15:51:12.950Z,12.90
2018-11-10T15:59:34.294Z,12.60
2018-11-10T16:07:55.657Z,12.40
2018-11-10T16:16:17.002Z,12.20
2018-11-10T16:24:38.374Z,11.90
2018-11-10T16:32:59.781Z,11.70
2018-11-10T16:41:21.118Z,11.50
2018-11-10T16:49:42.474Z,11.30
2018-11-10T16:58:03.819Z,11.00
2018-11-10T17:06:25.186Z,10.90
2018-11-10T17:14:46.565Z,10.80
2018-11-10T17:23:07.923Z,10.70
2018-11-10T17:31:29.293Z,10.50
2018-11-10T17:39:50.874Z,13.00
2018-11-10T17:48:12.239Z,10.90
2018-11-10T17:56:33.650Z,10.30
2018-11-10T18:04:55.163Z,10.20
2018-11-10T18:13:16.566Z,10.20
2018-11-10T18:21:38.028Z,10.00
2018-11-10T18:29:59.503Z,10.00
2018-11-10T18:38:20.938Z,10.00
2018-11-10T18:46:42.444Z,9.90
2018-11-10T18:55:03.873Z,9.90
2018-11-10T19:03:25.329Z,9.90
2018-11-10T19:11:46.686Z,9.70
2018-11-10T19:20:08.546Z,9.60
2018-11-10T19:28:29.999Z,9.50
2018-11-10T19:36:51.394Z,9.50
2018-11-10T19:45:12.813Z,9.50
2018-11-10T19:53:34.191Z,9.60
2018-11-10T20:01:55.602Z,9.50
2018-11-10T20:10:16.969Z,9.60
2018-11-10T20:18:38.413Z,9.50
2018-11-10T20:26:59.773Z,9.30
2018-11-10T20:35:21.179Z,9.30
2018-11-10T20:43:42.606Z,9.30
2018-11-10T20:52:04.058Z,9.40
2018-11-10T21:00:25.540Z,9.30
2018-11-10T21:08:47.012Z,9.30
2018-11-10T21:17:08.482Z,9.30
2018-11-10T21:25:29.997Z,9.20
2018-11-10T21:33:51.816Z,9.40
2018-11-10T21:42:13.214Z,9.10
2018-11-10T21:50:34.662Z,9.20
2018-11-10T21:58:56.042Z,9.20
2018-11-10T22:07:17.481Z,9.10
2018-11-10T22:15:38.859Z,9.10
2018-11-10T22:24:00.378Z,9.10
2018-11-10T22:32:21.826Z,8.90
2018-11-10T22:40:43.198Z,8.90
2018-11-10T22:49:05.478Z,9.00
2018-11-10T22:57:26.985Z,8.80
2018-11-10T23:05:48.336Z,8.80
2018-11-10T23:14:09.698Z,8.70
2018-11-10T23:22:31.194Z,8.70
2018-11-10T23:30:52.626Z,8.70
2018-11-10T23:39:15.093Z,9.00
2018-11-10T23:47:36.990Z,8.90
2018-11-10T23:55:58.368Z,8.80
